ELY5467 LLBG-LYTV
Flight info
| Callsign | ELY5467 |
|---|---|
| Flight time | N/A |
| Altitude | 38000 |
| Route | SUVAS N128 TEZAK L324 SAFTA DCT MAROS DCT LUTIG DCT BENEM UN127 RIKSO DCT STINO DCT TALAS DCT ENFAR DCT RINAV DCT RETRA L604 POD |
| Aircraft | B738/M-SDE2E3FGHIJ1LORVWXY/LB1 |
Departure
| Time | N/A |
|---|---|
| Airport | Ben Gurion International Airport (LLBG) |
Arrival
| Time | 2026-04-30 13:49 |
|---|---|
| Airport | Tivat Airport (LYTV) |
| Time | Latitude | Longitude | Altitude | Speed | Heading |
|---|---|---|---|---|---|
| 2026-04-30 13:11 | 40.93664 | 22.23297 | 38063 ft | 394 kts | 297° |
| 2026-04-30 13:11 | 40.95062 | 22.20169 | 38066 ft | 394 kts | 298° |
| 2026-04-30 13:12 | 40.97855 | 22.13902 | 38071 ft | 395 kts | 297° |
| 2026-04-30 13:12 | 41.00645 | 22.07628 | 38068 ft | 395 kts | 297° |
| 2026-04-30 13:13 | 41.04790 | 21.98285 | 38066 ft | 392 kts | 297° |
| 2026-04-30 13:14 | 41.08986 | 21.89034 | 38101 ft | 390 kts | 300° |
| 2026-04-30 13:14 | 41.13578 | 21.80099 | 38104 ft | 390 kts | 301° |
| 2026-04-30 13:15 | 41.18147 | 21.71205 | 38132 ft | 390 kts | 301° |
| 2026-04-30 13:16 | 41.21190 | 21.65227 | 38131 ft | 390 kts | 301° |
| 2026-04-30 13:16 | 41.24228 | 21.59246 | 38133 ft | 390 kts | 301° |
| 2026-04-30 13:17 | 41.28754 | 21.50292 | 38150 ft | 391 kts | 301° |
| 2026-04-30 13:18 | 41.33304 | 21.41263 | 38142 ft | 392 kts | 301° |
| 2026-04-30 13:18 | 41.37863 | 21.32193 | 38142 ft | 392 kts | 301° |
| 2026-04-30 13:19 | 41.40874 | 21.26188 | 38155 ft | 393 kts | 301° |
| 2026-04-30 13:19 | 41.43908 | 21.20124 | 38148 ft | 392 kts | 300° |
| 2026-04-30 13:20 | 41.46927 | 21.14080 | 38151 ft | 392 kts | 300° |
| 2026-04-30 13:20 | 41.49951 | 21.08009 | 38133 ft | 393 kts | 300° |
| 2026-04-30 13:21 | 41.52980 | 21.01923 | 38149 ft | 393 kts | 300° |
| 2026-04-30 13:22 | 41.57518 | 20.92777 | 37785 ft | 399 kts | 300° |
| 2026-04-30 13:22 | 41.59047 | 20.89685 | 37322 ft | 397 kts | 300° |
| 2026-04-30 13:22 | 41.62069 | 20.83575 | 36269 ft | 393 kts | 300° |
| 2026-04-30 13:23 | 41.63571 | 20.80534 | 35676 ft | 391 kts | 300° |
| 2026-04-30 13:23 | 41.66563 | 20.74467 | 34431 ft | 390 kts | 300° |
| 2026-04-30 13:24 | 41.69540 | 20.68416 | 33140 ft | 388 kts | 300° |
| 2026-04-30 13:24 | 41.72505 | 20.62377 | 31810 ft | 388 kts | 299° |
| 2026-04-30 13:25 | 41.75424 | 20.56425 | 30879 ft | 379 kts | 299° |
| 2026-04-30 13:25 | 41.77848 | 20.50365 | 29912 ft | 367 kts | 288° |
| 2026-04-30 13:26 | 41.80580 | 20.40849 | 28418 ft | 359 kts | 287° |
| 2026-04-30 13:26 | 41.82357 | 20.34694 | 27469 ft | 354 kts | 287° |
| 2026-04-30 13:27 | 41.84125 | 20.28585 | 26526 ft | 348 kts | 287° |
| 2026-04-30 13:28 | 41.86727 | 20.19587 | 25106 ft | 342 kts | 287° |
| 2026-04-30 13:28 | 41.88430 | 20.13675 | 24217 ft | 338 kts | 287° |
| 2026-04-30 13:28 | 41.89275 | 20.10735 | 23762 ft | 337 kts | 287° |
| 2026-04-30 13:29 | 41.90957 | 20.04901 | 22860 ft | 333 kts | 286° |
| 2026-04-30 13:29 | 41.92333 | 20.00085 | 22099 ft | 331 kts | 287° |
| 2026-04-30 13:30 | 41.94790 | 19.91490 | 20775 ft | 326 kts | 287° |
| 2026-04-30 13:31 | 41.96404 | 19.85827 | 19897 ft | 323 kts | 288° |
| 2026-04-30 13:31 | 41.99059 | 19.77534 | 18591 ft | 324 kts | 300° |
| 2026-04-30 13:32 | 42.01690 | 19.72618 | 17729 ft | 323 kts | 303° |
| 2026-04-30 13:32 | 42.04351 | 19.67779 | 16885 ft | 319 kts | 303° |
| 2026-04-30 13:33 | 42.06957 | 19.62982 | 16038 ft | 315 kts | 303° |
| 2026-04-30 13:33 | 42.09520 | 19.58242 | 15215 ft | 311 kts | 304° |
| 2026-04-30 13:34 | 42.10788 | 19.55892 | 14803 ft | 310 kts | 304° |
| 2026-04-30 13:34 | 42.14547 | 19.48904 | 13598 ft | 304 kts | 304° |
| 2026-04-30 13:35 | 42.15786 | 19.46596 | 13209 ft | 303 kts | 305° |
| 2026-04-30 13:35 | 42.18224 | 19.42051 | 12420 ft | 300 kts | 306° |
| 2026-04-30 13:36 | 42.20672 | 19.37481 | 11637 ft | 297 kts | 306° |
| 2026-04-30 13:36 | 42.21897 | 19.35237 | 11238 ft | 296 kts | 310° |
| 2026-04-30 13:36 | 42.25257 | 19.32157 | 10522 ft | 292 kts | 338° |
| 2026-04-30 13:37 | 42.27125 | 19.31221 | 10294 ft | 287 kts | 340° |
| 2026-04-30 13:37 | 42.30768 | 19.29445 | 10038 ft | 270 kts | 340° |
| 2026-04-30 13:38 | 42.34066 | 19.27286 | 9519 ft | 265 kts | 314° |
| 2026-04-30 13:38 | 42.34987 | 19.25142 | 9241 ft | 267 kts | 288° |
| 2026-04-30 13:38 | 42.34464 | 19.20264 | 8658 ft | 273 kts | 238° |
| 2026-04-30 13:39 | 42.31819 | 19.16540 | 8077 ft | 280 kts | 225° |
| 2026-04-30 13:39 | 42.28924 | 19.12856 | 7452 ft | 288 kts | 225° |
| 2026-04-30 13:40 | 42.27475 | 19.11000 | 7136 ft | 287 kts | 225° |
| 2026-04-30 13:40 | 42.26032 | 19.09141 | 6812 ft | 286 kts | 225° |
| 2026-04-30 13:40 | 42.24600 | 19.07288 | 6509 ft | 284 kts | 225° |
| 2026-04-30 13:40 | 42.23177 | 19.05445 | 6211 ft | 283 kts | 225° |
| 2026-04-30 13:41 | 42.21773 | 19.03628 | 6078 ft | 275 kts | 225° |
| 2026-04-30 13:41 | 42.20413 | 19.01867 | 5943 ft | 268 kts | 225° |
| 2026-04-30 13:41 | 42.19084 | 19.00152 | 5831 ft | 261 kts | 224° |
| 2026-04-30 13:41 | 42.17793 | 18.98491 | 5709 ft | 252 kts | 224° |
| 2026-04-30 13:42 | 42.16549 | 18.96901 | 5603 ft | 241 kts | 224° |
| 2026-04-30 13:42 | 42.15446 | 18.95257 | 5483 ft | 234 kts | 244° |
| 2026-04-30 13:42 | 42.15327 | 18.91070 | 5090 ft | 228 kts | 283° |
| 2026-04-30 13:43 | 42.15646 | 18.88981 | 4870 ft | 227 kts | 284° |
| 2026-04-30 13:43 | 42.16137 | 18.87003 | 4665 ft | 220 kts | 306° |
| 2026-04-30 13:43 | 42.17267 | 18.85683 | 4453 ft | 214 kts | 334° |
| 2026-04-30 13:43 | 42.18623 | 18.84910 | 4285 ft | 210 kts | 342° |
| 2026-04-30 13:44 | 42.20004 | 18.84254 | 3987 ft | 210 kts | 342° |
| 2026-04-30 13:44 | 42.21338 | 18.83611 | 3812 ft | 201 kts | 342° |
| 2026-04-30 13:44 | 42.22620 | 18.82960 | 3576 ft | 195 kts | 341° |
| 2026-04-30 13:44 | 42.23860 | 18.82306 | 3358 ft | 189 kts | 341° |
| 2026-04-30 13:45 | 42.26287 | 18.81048 | 2857 ft | 182 kts | 342° |
| 2026-04-30 13:45 | 42.27442 | 18.80457 | 2681 ft | 180 kts | 342° |
| 2026-04-30 13:45 | 42.28615 | 18.79866 | 2471 ft | 177 kts | 343° |
| 2026-04-30 13:46 | 42.29767 | 18.79295 | 2231 ft | 176 kts | 342° |
| 2026-04-30 13:46 | 42.30883 | 18.78719 | 2001 ft | 170 kts | 341° |
| 2026-04-30 13:46 | 42.31957 | 18.78159 | 1786 ft | 162 kts | 341° |
| 2026-04-30 13:46 | 42.32995 | 18.77604 | 1580 ft | 159 kts | 341° |
| 2026-04-30 13:47 | 42.34019 | 18.77075 | 1358 ft | 153 kts | 340° |
| 2026-04-30 13:47 | 42.34954 | 18.76583 | 1233 ft | 136 kts | 341° |
| 2026-04-30 13:47 | 42.35830 | 18.76136 | 1044 ft | 134 kts | 341° |
| 2026-04-30 13:47 | 42.36700 | 18.75685 | 844 ft | 136 kts | 341° |
| 2026-04-30 13:48 | 42.37586 | 18.75230 | 672 ft | 137 kts | 340° |
| 2026-04-30 13:48 | 42.38442 | 18.74675 | 471 ft | 136 kts | 328° |
| 2026-04-30 13:48 | 42.39154 | 18.73857 | 225 ft | 135 kts | 321° |
| 2026-04-30 13:48 | 42.39868 | 18.73028 | 29 ft | 130 kts | 318° |
| 2026-04-30 13:49 | 42.40413 | 18.72389 | 21 ft | 75 kts | 319° |
| 2026-04-30 13:49 | 42.40775 | 18.71964 | 17 ft | 63 kts | 319° |
| 2026-04-30 13:49 | 42.41065 | 18.71624 | 17 ft | 39 kts | 319° |
| 2026-04-30 13:49 | 42.41224 | 18.71438 | 14 ft | 26 kts | 319° |
| 2026-04-30 13:50 | 42.41311 | 18.71363 | 14 ft | 11 kts | 4° |
| 2026-04-30 13:50 | 42.41316 | 18.71507 | 18 ft | 10 kts | 140° |
| 2026-04-30 13:50 | 42.41265 | 18.71566 | 18 ft | 9 kts | 139° |
| 2026-04-30 13:51 | 42.41229 | 18.71609 | 17 ft | 7 kts | 138° |
| 2026-04-30 13:51 | 42.41214 | 18.71656 | 17 ft | 5 kts | 72° |
| 2026-04-30 13:51 | 42.41224 | 18.71686 | 17 ft | 3 kts | 77° |
| 2026-04-30 13:51 | 42.41215 | 18.71707 | 17 ft | 0 kts | 141° |
| 2026-04-30 13:52 | 42.41213 | 18.71707 | 17 ft | 1 kts | 164° |
| 2026-04-30 13:52 | 42.41205 | 18.71705 | 17 ft | 0 kts | 194° |